<?xml version="1.0" encoding="UTF-8" standalone="no" ?>
<gpx xmlns="http://www.topografix.com/GPX/1/1" xmlns:xsi="http://www.w3.org/2001/XMLSchema-instance" xsi:schemaLocation="http://www.topografix.com/GPX/1/1 http://www.topografix.com/GPX/1/1/gpx.xsd" version="1.1" creator="VisuGPX - https://www.visugpx.com">
  <metadata>
    <name>marche AICC 10km</name>
  </metadata>
  <trk>
    <name><![CDATA[14932030-aicc 10km]]></name>
    <trkseg>
      <trkpt lat="47.31921" lon="3.65586">
        <ele>176</ele>
        <time>2022-06-09T17:21:14Z</time>
      </trkpt>
      <trkpt lat="47.31756" lon="3.65536">
        <ele>174</ele>
        <time>2022-06-09T17:22:38Z</time>
      </trkpt>
      <trkpt lat="47.31787" lon="3.65778">
        <ele>172</ele>
        <time>2022-06-09T17:24:02Z</time>
      </trkpt>
      <trkpt lat="47.31869" lon="3.65979">
        <ele>173</ele>
        <time>2022-06-09T17:25:21Z</time>
      </trkpt>
      <trkpt lat="47.32368" lon="3.66047">
        <ele>171</ele>
        <time>2022-06-09T17:29:32Z</time>
      </trkpt>
      <trkpt lat="47.32823" lon="3.65824">
        <ele>170</ele>
        <time>2022-06-09T17:33:32Z</time>
      </trkpt>
      <trkpt lat="47.32856" lon="3.65812">
        <ele>170</ele>
        <time>2022-06-09T17:33:49Z</time>
      </trkpt>
      <trkpt lat="47.32866" lon="3.65898">
        <ele>171</ele>
        <time>2022-06-09T17:34:19Z</time>
      </trkpt>
      <trkpt lat="47.32869" lon="3.65913">
        <ele>172</ele>
        <time>2022-06-09T17:34:24Z</time>
      </trkpt>
      <trkpt lat="47.32885" lon="3.65979">
        <ele>173</ele>
        <time>2022-06-09T17:34:48Z</time>
      </trkpt>
      <trkpt lat="47.32864" lon="3.65981">
        <ele>172</ele>
        <time>2022-06-09T17:34:58Z</time>
      </trkpt>
      <trkpt lat="47.32859" lon="3.6599">
        <ele>173</ele>
        <time>2022-06-09T17:35:02Z</time>
      </trkpt>
      <trkpt lat="47.32843" lon="3.6604">
        <ele>174</ele>
        <time>2022-06-09T17:35:21Z</time>
      </trkpt>
      <trkpt lat="47.32821" lon="3.66065">
        <ele>174</ele>
        <time>2022-06-09T17:35:35Z</time>
      </trkpt>
      <trkpt lat="47.32795" lon="3.66107">
        <ele>173</ele>
        <time>2022-06-09T17:35:54Z</time>
      </trkpt>
      <trkpt lat="47.32791" lon="3.66123">
        <ele>173</ele>
        <time>2022-06-09T17:36:00Z</time>
      </trkpt>
      <trkpt lat="47.32787" lon="3.66171">
        <ele>174</ele>
        <time>2022-06-09T17:36:16Z</time>
      </trkpt>
      <trkpt lat="47.32788" lon="3.66196">
        <ele>174</ele>
        <time>2022-06-09T17:36:25Z</time>
      </trkpt>
      <trkpt lat="47.32791" lon="3.66246">
        <ele>173</ele>
        <time>2022-06-09T17:36:42Z</time>
      </trkpt>
      <trkpt lat="47.32794" lon="3.66263">
        <ele>174</ele>
        <time>2022-06-09T17:36:48Z</time>
      </trkpt>
      <trkpt lat="47.32782" lon="3.66314">
        <ele>173</ele>
        <time>2022-06-09T17:37:06Z</time>
      </trkpt>
      <trkpt lat="47.32779" lon="3.66338">
        <ele>174</ele>
        <time>2022-06-09T17:37:14Z</time>
      </trkpt>
      <trkpt lat="47.32784" lon="3.66459">
        <ele>177</ele>
        <time>2022-06-09T17:37:56Z</time>
      </trkpt>
      <trkpt lat="47.32788" lon="3.6654">
        <ele>178</ele>
        <time>2022-06-09T17:38:23Z</time>
      </trkpt>
      <trkpt lat="47.3279" lon="3.66544">
        <ele>178</ele>
        <time>2022-06-09T17:38:25Z</time>
      </trkpt>
      <trkpt lat="47.32769" lon="3.66558">
        <ele>178</ele>
        <time>2022-06-09T17:38:36Z</time>
      </trkpt>
      <trkpt lat="47.32751" lon="3.66623">
        <ele>179</ele>
        <time>2022-06-09T17:39:00Z</time>
      </trkpt>
      <trkpt lat="47.32751" lon="3.66657">
        <ele>181</ele>
        <time>2022-06-09T17:39:12Z</time>
      </trkpt>
      <trkpt lat="47.32758" lon="3.66687">
        <ele>182</ele>
        <time>2022-06-09T17:39:22Z</time>
      </trkpt>
      <trkpt lat="47.32814" lon="3.66859">
        <ele>186</ele>
        <time>2022-06-09T17:40:27Z</time>
      </trkpt>
      <trkpt lat="47.32821" lon="3.66891">
        <ele>187</ele>
        <time>2022-06-09T17:40:39Z</time>
      </trkpt>
      <trkpt lat="47.32833" lon="3.66989">
        <ele>191</ele>
        <time>2022-06-09T17:41:12Z</time>
      </trkpt>
      <trkpt lat="47.32846" lon="3.67063">
        <ele>194</ele>
        <time>2022-06-09T17:41:38Z</time>
      </trkpt>
      <trkpt lat="47.32851" lon="3.67107">
        <ele>195</ele>
        <time>2022-06-09T17:41:53Z</time>
      </trkpt>
      <trkpt lat="47.32854" lon="3.67191">
        <ele>200</ele>
        <time>2022-06-09T17:42:22Z</time>
      </trkpt>
      <trkpt lat="47.3285" lon="3.67312">
        <ele>207</ele>
        <time>2022-06-09T17:43:03Z</time>
      </trkpt>
      <trkpt lat="47.32837" lon="3.67385">
        <ele>213</ele>
        <time>2022-06-09T17:43:29Z</time>
      </trkpt>
      <trkpt lat="47.32781" lon="3.6748">
        <ele>225</ele>
        <time>2022-06-09T17:44:11Z</time>
      </trkpt>
      <trkpt lat="47.32768" lon="3.6751">
        <ele>230</ele>
        <time>2022-06-09T17:44:23Z</time>
      </trkpt>
      <trkpt lat="47.32762" lon="3.67599">
        <ele>240</ele>
        <time>2022-06-09T17:44:54Z</time>
      </trkpt>
      <trkpt lat="47.32767" lon="3.67633">
        <ele>243</ele>
        <time>2022-06-09T17:45:06Z</time>
      </trkpt>
      <trkpt lat="47.32753" lon="3.67843">
        <ele>245</ele>
        <time>2022-06-09T17:46:17Z</time>
      </trkpt>
      <trkpt lat="47.32755" lon="3.67858">
        <ele>244</ele>
        <time>2022-06-09T17:46:22Z</time>
      </trkpt>
      <trkpt lat="47.3283" lon="3.67945">
        <ele>246</ele>
        <time>2022-06-09T17:47:10Z</time>
      </trkpt>
      <trkpt lat="47.32884" lon="3.67942">
        <ele>249</ele>
        <time>2022-06-09T17:47:37Z</time>
      </trkpt>
      <trkpt lat="47.32866" lon="3.68047">
        <ele>242</ele>
        <time>2022-06-09T17:48:14Z</time>
      </trkpt>
      <trkpt lat="47.32865" lon="3.6805">
        <ele>242</ele>
        <time>2022-06-09T17:48:15Z</time>
      </trkpt>
      <trkpt lat="47.33157" lon="3.67964">
        <ele>245</ele>
        <time>2022-06-09T17:50:44Z</time>
      </trkpt>
      <trkpt lat="47.33394" lon="3.67946">
        <ele>239</ele>
        <time>2022-06-09T17:52:43Z</time>
      </trkpt>
      <trkpt lat="47.33683" lon="3.67818">
        <ele>239</ele>
        <time>2022-06-09T17:55:14Z</time>
      </trkpt>
      <trkpt lat="47.33686" lon="3.67621">
        <ele>238</ele>
        <time>2022-06-09T17:56:21Z</time>
      </trkpt>
      <trkpt lat="47.33814" lon="3.67558">
        <ele>234</ele>
        <time>2022-06-09T17:57:28Z</time>
      </trkpt>
      <trkpt lat="47.33812" lon="3.67519">
        <ele>233</ele>
        <time>2022-06-09T17:57:41Z</time>
      </trkpt>
      <trkpt lat="47.3381" lon="3.67503">
        <ele>232</ele>
        <time>2022-06-09T17:57:47Z</time>
      </trkpt>
      <trkpt lat="47.33806" lon="3.67489">
        <ele>232</ele>
        <time>2022-06-09T17:57:52Z</time>
      </trkpt>
      <trkpt lat="47.338" lon="3.67477">
        <ele>232</ele>
        <time>2022-06-09T17:57:57Z</time>
      </trkpt>
      <trkpt lat="47.33786" lon="3.67459">
        <ele>233</ele>
        <time>2022-06-09T17:58:06Z</time>
      </trkpt>
      <trkpt lat="47.33772" lon="3.67436">
        <ele>233</ele>
        <time>2022-06-09T17:58:17Z</time>
      </trkpt>
      <trkpt lat="47.33728" lon="3.67328">
        <ele>225</ele>
        <time>2022-06-09T17:59:00Z</time>
      </trkpt>
      <trkpt lat="47.33705" lon="3.67264">
        <ele>221</ele>
        <time>2022-06-09T17:59:24Z</time>
      </trkpt>
      <trkpt lat="47.33677" lon="3.67181">
        <ele>217</ele>
        <time>2022-06-09T17:59:56Z</time>
      </trkpt>
      <trkpt lat="47.33626" lon="3.6705">
        <ele>212</ele>
        <time>2022-06-09T18:00:47Z</time>
      </trkpt>
      <trkpt lat="47.33589" lon="3.6699">
        <ele>210</ele>
        <time>2022-06-09T18:01:14Z</time>
      </trkpt>
      <trkpt lat="47.33464" lon="3.66793">
        <ele>203</ele>
        <time>2022-06-09T18:02:46Z</time>
      </trkpt>
      <trkpt lat="47.33409" lon="3.66711">
        <ele>202</ele>
        <time>2022-06-09T18:03:25Z</time>
      </trkpt>
      <trkpt lat="47.33328" lon="3.66631">
        <ele>201</ele>
        <time>2022-06-09T18:04:14Z</time>
      </trkpt>
      <trkpt lat="47.33257" lon="3.66506">
        <ele>195</ele>
        <time>2022-06-09T18:05:09Z</time>
      </trkpt>
      <trkpt lat="47.33222" lon="3.66436">
        <ele>193</ele>
        <time>2022-06-09T18:05:39Z</time>
      </trkpt>
      <trkpt lat="47.332" lon="3.66389">
        <ele>192</ele>
        <time>2022-06-09T18:05:58Z</time>
      </trkpt>
      <trkpt lat="47.33173" lon="3.66292">
        <ele>189</ele>
        <time>2022-06-09T18:06:34Z</time>
      </trkpt>
      <trkpt lat="47.33179" lon="3.66288">
        <ele>188</ele>
        <time>2022-06-09T18:06:37Z</time>
      </trkpt>
      <trkpt lat="47.33168" lon="3.66234">
        <ele>186</ele>
        <time>2022-06-09T18:06:56Z</time>
      </trkpt>
      <trkpt lat="47.33154" lon="3.66155">
        <ele>181</ele>
        <time>2022-06-09T18:07:24Z</time>
      </trkpt>
      <trkpt lat="47.33146" lon="3.66069">
        <ele>177</ele>
        <time>2022-06-09T18:07:53Z</time>
      </trkpt>
      <trkpt lat="47.33141" lon="3.66051">
        <ele>176</ele>
        <time>2022-06-09T18:08:00Z</time>
      </trkpt>
      <trkpt lat="47.33134" lon="3.66043">
        <ele>176</ele>
        <time>2022-06-09T18:08:04Z</time>
      </trkpt>
      <trkpt lat="47.3312" lon="3.66035">
        <ele>177</ele>
        <time>2022-06-09T18:08:12Z</time>
      </trkpt>
      <trkpt lat="47.33095" lon="3.66047">
        <ele>179</ele>
        <time>2022-06-09T18:08:25Z</time>
      </trkpt>
      <trkpt lat="47.33068" lon="3.66066">
        <ele>179</ele>
        <time>2022-06-09T18:08:40Z</time>
      </trkpt>
      <trkpt lat="47.33057" lon="3.66079">
        <ele>180</ele>
        <time>2022-06-09T18:08:47Z</time>
      </trkpt>
      <trkpt lat="47.33036" lon="3.66055">
        <ele>179</ele>
        <time>2022-06-09T18:09:00Z</time>
      </trkpt>
      <trkpt lat="47.33029" lon="3.66051">
        <ele>179</ele>
        <time>2022-06-09T18:09:04Z</time>
      </trkpt>
      <trkpt lat="47.33033" lon="3.66045">
        <ele>179</ele>
        <time>2022-06-09T18:09:07Z</time>
      </trkpt>
      <trkpt lat="47.33035" lon="3.66031">
        <ele>179</ele>
        <time>2022-06-09T18:09:12Z</time>
      </trkpt>
      <trkpt lat="47.33036" lon="3.65998">
        <ele>178</ele>
        <time>2022-06-09T18:09:23Z</time>
      </trkpt>
      <trkpt lat="47.33033" lon="3.65987">
        <ele>177</ele>
        <time>2022-06-09T18:09:27Z</time>
      </trkpt>
      <trkpt lat="47.33027" lon="3.65981">
        <ele>177</ele>
        <time>2022-06-09T18:09:30Z</time>
      </trkpt>
      <trkpt lat="47.32992" lon="3.65989">
        <ele>177</ele>
        <time>2022-06-09T18:09:48Z</time>
      </trkpt>
      <trkpt lat="47.32937" lon="3.66005">
        <ele>175</ele>
        <time>2022-06-09T18:10:16Z</time>
      </trkpt>
      <trkpt lat="47.32897" lon="3.66">
        <ele>174</ele>
        <time>2022-06-09T18:10:36Z</time>
      </trkpt>
      <trkpt lat="47.32891" lon="3.66003">
        <ele>174</ele>
        <time>2022-06-09T18:10:39Z</time>
      </trkpt>
      <trkpt lat="47.32885" lon="3.65979">
        <ele>173</ele>
        <time>2022-06-09T18:10:48Z</time>
      </trkpt>
      <trkpt lat="47.32869" lon="3.65913">
        <ele>172</ele>
        <time>2022-06-09T18:11:12Z</time>
      </trkpt>
      <trkpt lat="47.32864" lon="3.65889">
        <ele>171</ele>
        <time>2022-06-09T18:11:20Z</time>
      </trkpt>
      <trkpt lat="47.32856" lon="3.65812">
        <ele>170</ele>
        <time>2022-06-09T18:11:47Z</time>
      </trkpt>
      <trkpt lat="47.32853" lon="3.6574">
        <ele>170</ele>
        <time>2022-06-09T18:12:11Z</time>
      </trkpt>
      <trkpt lat="47.32856" lon="3.65597">
        <ele>171</ele>
        <time>2022-06-09T18:13:00Z</time>
      </trkpt>
      <trkpt lat="47.32862" lon="3.6551">
        <ele>173</ele>
        <time>2022-06-09T18:13:30Z</time>
      </trkpt>
      <trkpt lat="47.32864" lon="3.65489">
        <ele>174</ele>
        <time>2022-06-09T18:13:37Z</time>
      </trkpt>
      <trkpt lat="47.32865" lon="3.65475">
        <ele>174</ele>
        <time>2022-06-09T18:13:41Z</time>
      </trkpt>
      <trkpt lat="47.32867" lon="3.65382">
        <ele>179</ele>
        <time>2022-06-09T18:14:13Z</time>
      </trkpt>
      <trkpt lat="47.32859" lon="3.64718">
        <ele>182</ele>
        <time>2022-06-09T18:17:58Z</time>
      </trkpt>
      <trkpt lat="47.32854" lon="3.64631">
        <ele>184</ele>
        <time>2022-06-09T18:18:28Z</time>
      </trkpt>
      <trkpt lat="47.32847" lon="3.64595">
        <ele>186</ele>
        <time>2022-06-09T18:18:41Z</time>
      </trkpt>
      <trkpt lat="47.32726" lon="3.64633">
        <ele>190</ele>
        <time>2022-06-09T18:19:43Z</time>
      </trkpt>
      <trkpt lat="47.32545" lon="3.64829">
        <ele>196</ele>
        <time>2022-06-09T18:21:35Z</time>
      </trkpt>
      <trkpt lat="47.32507" lon="3.64946">
        <ele>195</ele>
        <time>2022-06-09T18:22:19Z</time>
      </trkpt>
      <trkpt lat="47.32381" lon="3.65078">
        <ele>191</ele>
        <time>2022-06-09T18:23:36Z</time>
      </trkpt>
      <trkpt lat="47.32339" lon="3.65061">
        <ele>190</ele>
        <time>2022-06-09T18:23:58Z</time>
      </trkpt>
      <trkpt lat="47.32312" lon="3.65037">
        <ele>190</ele>
        <time>2022-06-09T18:24:14Z</time>
      </trkpt>
      <trkpt lat="47.32289" lon="3.65024">
        <ele>189</ele>
        <time>2022-06-09T18:24:26Z</time>
      </trkpt>
      <trkpt lat="47.32184" lon="3.64916">
        <ele>190</ele>
        <time>2022-06-09T18:25:30Z</time>
      </trkpt>
      <trkpt lat="47.32159" lon="3.64888">
        <ele>192</ele>
        <time>2022-06-09T18:25:46Z</time>
      </trkpt>
      <trkpt lat="47.32139" lon="3.64876">
        <ele>192</ele>
        <time>2022-06-09T18:25:57Z</time>
      </trkpt>
      <trkpt lat="47.32071" lon="3.64828">
        <ele>192</ele>
        <time>2022-06-09T18:26:34Z</time>
      </trkpt>
      <trkpt lat="47.32053" lon="3.64819">
        <ele>192</ele>
        <time>2022-06-09T18:26:44Z</time>
      </trkpt>
      <trkpt lat="47.32029" lon="3.64812">
        <ele>191</ele>
        <time>2022-06-09T18:26:56Z</time>
      </trkpt>
      <trkpt lat="47.31987" lon="3.64785">
        <ele>191</ele>
        <time>2022-06-09T18:27:19Z</time>
      </trkpt>
      <trkpt lat="47.31987" lon="3.64784">
        <ele>191</ele>
        <time>2022-06-09T18:27:19Z</time>
      </trkpt>
      <trkpt lat="47.31983" lon="3.64794">
        <ele>191</ele>
        <time>2022-06-09T18:27:23Z</time>
      </trkpt>
      <trkpt lat="47.31939" lon="3.64854">
        <ele>190</ele>
        <time>2022-06-09T18:27:53Z</time>
      </trkpt>
      <trkpt lat="47.31851" lon="3.64994">
        <ele>188</ele>
        <time>2022-06-09T18:28:58Z</time>
      </trkpt>
      <trkpt lat="47.31826" lon="3.65032">
        <ele>187</ele>
        <time>2022-06-09T18:29:16Z</time>
      </trkpt>
      <trkpt lat="47.31808" lon="3.65069">
        <ele>186</ele>
        <time>2022-06-09T18:29:32Z</time>
      </trkpt>
      <trkpt lat="47.31783" lon="3.65157">
        <ele>181</ele>
        <time>2022-06-09T18:30:04Z</time>
      </trkpt>
      <trkpt lat="47.31769" lon="3.65179">
        <ele>180</ele>
        <time>2022-06-09T18:30:14Z</time>
      </trkpt>
      <trkpt lat="47.3174" lon="3.65202">
        <ele>179</ele>
        <time>2022-06-09T18:30:31Z</time>
      </trkpt>
      <trkpt lat="47.31728" lon="3.6521">
        <ele>179</ele>
        <time>2022-06-09T18:30:37Z</time>
      </trkpt>
      <trkpt lat="47.3172" lon="3.65215">
        <ele>179</ele>
        <time>2022-06-09T18:30:42Z</time>
      </trkpt>
      <trkpt lat="47.31716" lon="3.65219">
        <ele>179</ele>
        <time>2022-06-09T18:30:44Z</time>
      </trkpt>
      <trkpt lat="47.31705" lon="3.6524">
        <ele>179</ele>
        <time>2022-06-09T18:30:53Z</time>
      </trkpt>
      <trkpt lat="47.31695" lon="3.65261">
        <ele>178</ele>
        <time>2022-06-09T18:31:02Z</time>
      </trkpt>
      <trkpt lat="47.31657" lon="3.65317">
        <ele>178</ele>
        <time>2022-06-09T18:31:29Z</time>
      </trkpt>
      <trkpt lat="47.31641" lon="3.65346">
        <ele>178</ele>
        <time>2022-06-09T18:31:41Z</time>
      </trkpt>
      <trkpt lat="47.31638" lon="3.65353">
        <ele>178</ele>
        <time>2022-06-09T18:31:44Z</time>
      </trkpt>
      <trkpt lat="47.31641" lon="3.65359">
        <ele>177</ele>
        <time>2022-06-09T18:31:47Z</time>
      </trkpt>
      <trkpt lat="47.31642" lon="3.65367">
        <ele>177</ele>
        <time>2022-06-09T18:31:49Z</time>
      </trkpt>
      <trkpt lat="47.3164" lon="3.65374">
        <ele>177</ele>
        <time>2022-06-09T18:31:52Z</time>
      </trkpt>
      <trkpt lat="47.31649" lon="3.65381">
        <ele>177</ele>
        <time>2022-06-09T18:31:57Z</time>
      </trkpt>
      <trkpt lat="47.3166" lon="3.65393">
        <ele>177</ele>
        <time>2022-06-09T18:32:04Z</time>
      </trkpt>
      <trkpt lat="47.31691" lon="3.65448">
        <ele>175</ele>
        <time>2022-06-09T18:32:28Z</time>
      </trkpt>
      <trkpt lat="47.31714" lon="3.65498">
        <ele>174</ele>
        <time>2022-06-09T18:32:49Z</time>
      </trkpt>
      <trkpt lat="47.31723" lon="3.65514">
        <ele>174</ele>
        <time>2022-06-09T18:32:56Z</time>
      </trkpt>
      <trkpt lat="47.31731" lon="3.65519">
        <ele>174</ele>
        <time>2022-06-09T18:33:00Z</time>
      </trkpt>
      <trkpt lat="47.31781" lon="3.65542">
        <ele>173</ele>
        <time>2022-06-09T18:33:26Z</time>
      </trkpt>
      <trkpt lat="47.31831" lon="3.65558">
        <ele>173</ele>
        <time>2022-06-09T18:33:52Z</time>
      </trkpt>
      <trkpt lat="47.31921" lon="3.65583">
        <ele>176</ele>
        <time>2022-06-09T18:34:38Z</time>
      </trkpt>
    </trkseg>
  </trk>
</gpx>